Time;durP1;ratioP1;P1;durP2;ratioP2;P2;SDS_P1;SDS_P2;PMS_P1;PMS_P2;Temp;Humidity;BMP_temperature;BMP_pressure;BME280_temperature;BME280_humidity;BME280_pressure;Samples;Min_cycle;Max_cycle;Signal;HPM_P1;HPM_P2
2023/11/04 11:32:12;;;;;;;;;;;;;;;24.21;49.95;98945.31;5084863;28;1353;-75
2023/11/04 11:34:50;;;;;;;;;;;;;;;24.65;48.97;98958.28;5066685;28;1105;-73
2023/11/04 11:37:17;;;;;;;;;;;;;;;24.79;49.24;98945.63;5061945;28;1129;-79
2023/11/04 11:39:43;;;;;;;;;;;;;;;25.11;48.67;98955.69;5071657;28;1204;-79
2023/11/04 11:42:08;;;;;;;;;;;;;;;24.79;49.67;98963.63;5069449;28;1039;-72
2023/11/04 11:44:34;;;;;;;;;;;;;;;24.85;50.15;98968.16;5073184;28;1051;-74
2023/11/04 11:47:01;;;;;;;;;;;;;;;24.93;49.65;98989.47;5072293;28;2664;-76
2023/11/04 11:49:27;;;;;;;;;;;;;;;25.14;48.81;98982.16;5072895;28;1050;-75
2023/11/04 11:51:52;;;;;;;;;;;;;;;25.23;48.88;99028.50;5061556;28;1913;-78
2023/11/04 11:54:18;;;;;;;;;;;;;;;25.29;48.41;99048.38;5061391;28;1102;-76
2023/11/04 11:56:45;;;;;;;;;;;;;;;25.36;47.63;99033.00;5068964;28;1031;-74
2023/11/04 11:59:10;;;;;;;;;;;;;;;25.49;47.41;99036.69;5072493;28;1440;-73
2023/11/04 12:01:36;;;;;;;;;;;;;;;25.64;47.30;99055.28;5072162;28;1034;-75
2023/11/04 12:04:02;;;;;;;;;;;;;;;25.82;46.40;99045.66;5071133;28;1027;-76
2023/11/04 12:06:28;;;;;;;;;;;;;;;25.43;47.71;99103.78;5070534;28;933;-76
2023/11/04 12:08:56;;;;;;;;;;;;;;;23.69;52.21;99203.56;5084244;28;1018;-75
2023/11/04 12:11:22;;;;;;;;;;;;;;;22.42;56.62;99303.25;5072801;28;1902;-74
2023/11/04 12:13:48;;;;;;;;;;;;;;;21.01;56.48;99309.69;5061686;28;1001;-76
2023/11/04 12:16:13;;;;;;;;;;;;;;;21.03;57.29;99310.38;5073396;28;1839;-76
2023/11/04 12:18:39;;;;;;;;;;;;;;;21.41;56.83;99247.22;5062661;28;1213;-72
2023/11/04 12:21:06;;;;;;;;;;;;;;;21.58;56.25;99257.75;5054045;28;1024;-73
2023/11/04 12:23:31;;;;;;;;;;;;;;;22.31;54.42;99248.28;5071822;28;1038;-74
2023/11/04 12:25:58;;;;;;;;;;;;;;;22.99;52.98;99244.50;5071919;28;1061;-74
2023/11/04 12:28:25;;;;;;;;;;;;;;;23.73;50.69;99233.53;5071981;28;1185;-74
2023/11/04 12:31:00;;;;;;;;;;;;;;;23.94;50.07;99231.81;5089938;28;1902;-73
2023/11/04 12:33:25;;;;;;;;;;;;;;;23.59;50.54;99292.50;5111775;28;1358;-72
2023/11/04 12:35:57;;;;;;;;;;;;;;;21.79;54.62;99331.22;5123461;28;1046;-73
2023/11/04 12:38:23;;;;;;;;;;;;;;;;;;5120278;28;1350;-74
2023/11/04 12:40:49;;;;;;;;;;;;;;;21.06;56.85;99343.09;5115096;28;1096;-73
2023/11/04 12:43:14;;;;;;;;;;;;;;;20.78;57.93;99347.91;5095105;28;1474;-73
2023/11/04 12:45:40;;;;;;;;;;;;;;;20.66;57.90;99386.69;5076967;28;2442;-73
2023/11/04 12:48:05;;;;;;;;;;;;;;;21.41;55.25;99340.84;5091736;28;1019;-74
2023/11/04 12:50:31;;;;;;;;;;;;;;;21.91;54.18;99289.59;5091047;28;1883;-74
2023/11/04 12:53:00;;;;;;;;;;;;;;;21.36;54.68;99271.00;5087726;28;968;-73
2023/11/04 12:55:25;;;;;;;;;;;;;;;21.46;55.00;99268.91;5098266;28;1064;-75
2023/11/04 12:57:51;;;;;;;;;;;;;;;21.57;54.69;99248.91;5076279;28;1416;-72
2023/11/04 13:00:16;;;;;;;;;;;;;;;21.46;54.11;99252.84;5087790;28;1388;-74
2023/11/04 13:02:42;;;;;;;;;;;;;;;21.50;54.23;99270.19;5089016;28;1479;-74
2023/11/04 13:05:07;;;;;;;;;;;;;;;20.87;55.82;99307.75;5095686;28;1158;-73
2023/11/04 13:07:33;;;;;;;;;;;;;;;20.47;57.03;99329.97;5084211;28;1023;-73
2023/11/04 13:09:59;;;;;;;;;;;;;;;20.35;57.93;99353.59;5094861;28;1938;-74
2023/11/04 13:12:24;;;;;;;;;;;;;;;20.32;57.64;99353.91;5069652;28;1066;-73
2023/11/04 13:14:50;;;;;;;;;;;;;;;20.06;58.87;99385.19;5089067;28;1370;-74
2023/11/04 13:17:15;;;;;;;;;;;;;;;20.13;59.14;99339.94;5096770;28;1374;-73
2023/11/04 13:19:41;;;;;;;;;;;;;;;19.89;59.91;99356.78;5105787;28;990;-73
2023/11/04 13:22:06;;;;;;;;;;;;;;;19.84;60.30;99343.97;5085126;28;1152;-74
2023/11/04 13:24:32;;;;;;;;;;;;;;;19.88;60.04;99342.63;5094502;28;1316;-72
2023/11/04 13:26:58;;;;;;;;;;;;;;;19.76;60.25;99344.81;5095198;28;1083;-73
2023/11/04 13:29:24;;;;;;;;;;;;;;;19.93;59.23;99380.31;5088064;28;1081;-75
2023/11/04 13:31:50;;;;;;;;;;;;;;;19.86;59.80;99365.97;5097991;28;1969;-72
2023/11/04 13:34:15;;;;;;;;;;;;;;;19.90;59.31;99347.78;5090998;28;1142;-72
2023/11/04 13:36:41;;;;;;;;;;;;;;;20.01;58.64;99271.88;5106336;28;1153;-71
2023/11/04 13:39:06;;;;;;;;;;;;;;;20.12;58.29;99241.34;5088060;28;1283;-72
2023/11/04 13:41:38;;;;;;;;;;;;;;;20.07;58.30;99263.19;5093964;28;1527;-72
2023/11/04 13:44:04;;;;;;;;;;;;;;;20.48;57.38;99221.31;5075261;28;1363;-75
2023/11/04 13:46:29;;;;;;;;;;;;;;;20.66;56.01;99163.09;5097871;28;1161;-75
2023/11/04 13:48:55;;;;;;;;;;;;;;;20.95;55.68;99056.47;5098221;28;978;-74
2023/11/04 13:51:20;;;;;;;;;;;;;;;20.34;58.53;99033.25;5083362;28;1993;-74
2023/11/04 13:53:46;;;;;;;;;;;;;;;20.09;59.47;99026.28;5076373;28;1261;-73
2023/11/04 13:56:11;;;;;;;;;;;;;;;19.86;60.52;99005.72;5097346;28;998;-73
2023/11/04 13:58:37;;;;;;;;;;;;;;;20.58;57.65;99018.03;5099053;28;1048;-75
2023/11/04 14:01:02;;;;;;;;;;;;;;;20.22;58.75;99020.34;5106211;28;1177;-74
2023/11/04 14:03:31;;;;;;;;;;;;;;;20.00;59.40;99078.03;5097722;28;1129;-72
2023/11/04 14:06:00;;;;;;;;;;;;;;;20.02;60.69;99097.38;5083164;28;1175;-73
2023/11/04 14:08:25;;;;;;;;;;;;;;;20.03;59.56;99083.03;5094226;28;955;-73
2023/11/04 14:10:51;;;;;;;;;;;;;;;19.74;60.73;99109.34;5097677;28;1902;-74
2023/11/04 14:13:17;;;;;;;;;;;;;;;20.04;59.37;99087.38;5097384;28;1070;-73
2023/11/04 14:15:42;;;;;;;;;;;;;;;19.92;59.90;99071.72;5083759;28;1110;-75
2023/11/04 14:18:08;;;;;;;;;;;;;;;20.72;57.91;99022.56;5096900;28;1627;-74
2023/11/04 14:20:34;;;;;;;;;;;;;;;20.71;57.56;99031.63;5083448;28;1054;-73
2023/11/04 14:23:00;;;;;;;;;;;;;;;20.64;58.31;99042.19;5077346;28;1126;-76
2023/11/04 14:25:26;;;;;;;;;;;;;;;20.57;58.49;99019.88;5081933;28;1099;-74
2023/11/04 14:27:52;;;;;;;;;;;;;;;20.40;59.28;99017.34;5097008;28;1006;-75
2023/11/04 14:30:18;;;;;;;;;;;;;;;20.88;57.52;98991.34;5096366;28;1986;-75
2023/11/04 14:32:44;;;;;;;;;;;;;;;20.52;58.35;98980.34;5094558;28;2409;-74
2023/11/04 14:35:10;;;;;;;;;;;;;;;20.57;58.11;98960.28;5070696;28;2304;-71
2023/11/04 14:37:36;;;;;;;;;;;;;;;20.82;56.67;98952.00;5092937;28;2062;-74
2023/11/04 14:40:02;;;;;;;;;;;;;;;20.54;58.11;98956.97;5086525;28;1812;-74
2023/11/04 14:42:28;;;;;;;;;;;;;;;20.71;56.79;98948.78;5079877;28;1934;-75
2023/11/04 14:44:53;;;;;;;;;;;;;;;20.11;59.20;98936.19;5087351;28;2002;-77
2023/11/04 14:47:19;;;;;;;;;;;;;;;20.28;58.35;98947.56;5096574;28;1961;-78
2023/11/04 14:49:45;;;;;;;;;;;;;;;21.28;55.02;98946.47;5096899;28;2242;-76
2023/11/04 14:52:10;;;;;;;;;;;;;;;20.77;56.02;99051.44;5096515;28;1983;-74
2023/11/04 14:54:36;;;;;;;;;;;;;;;20.39;57.62;99002.34;5094802;28;1181;-74
2023/11/04 14:57:01;;;;;;;;;;;;;;;21.90;53.39;98939.91;5108919;28;1304;-73
2023/11/04 14:59:28;;;;;;;;;;;;;;;21.58;53.61;98992.88;5099391;28;1054;-76
2023/11/04 15:01:55;;;;;;;;;;;;;;;20.96;54.99;99047.44;5095545;28;1178;-76
2023/11/04 15:04:21;;;;;;;;;;;;;;;20.85;55.06;99110.16;5107603;28;1283;-77
2023/11/04 15:06:47;;;;;;;;;;;;;;;20.68;56.06;99184.28;5087263;28;1076;-74
2023/11/04 15:11:55;;;;;;;;;;;;;;;15.83;45.88;99172.28;5113984;27;1373;-49
2023/11/04 15:14:20;;;;;;;;;;;;;;;16.32;47.44;99168.56;5114197;28;1085;-42
2023/11/04 15:16:46;;;;;;;;;;;;;;;15.99;47.24;99172.53;5113506;27;1452;-46
2023/11/04 15:19:11;;;;;;;;;;;;;;;15.80;46.42;99170.75;5108198;28;2458;-41
2023/11/04 15:21:37;;;;;;;;;;;;;;;15.74;45.86;99145.66;5111160;28;1050;-43
2023/11/04 15:24:02;;;;;;;;;;;;;;;16.53;47.18;99168.28;5113563;28;1066;-46
2023/11/04 15:26:28;;;;;;;;;;;;;;;16.28;47.70;99142.31;5113548;28;1038;-44
2023/11/04 15:28:54;;;;;;;;;;;;;;;16.05;47.19;99128.63;5113749;28;990;-41
2023/11/04 15:31:19;;;;;;;;;;;;;;;15.99;46.27;99116.81;5112723;28;1974;-46
2023/11/04 15:33:45;;;;;;;;;;;;;;;15.91;45.71;99096.28;5113116;28;1114;-44
2023/11/04 15:36:10;;;;;;;;;;;;;;;16.62;47.62;99055.88;5113264;28;1050;-42
2023/11/04 15:38:36;;;;;;;;;;;;;;;16.38;47.76;99048.56;5112668;28;1107;-41
2023/11/04 15:41:02;;;;;;;;;;;;;;;16.00;47.04;99009.75;5112973;28;1111;-41
2023/11/04 15:43:27;;;;;;;;;;;;;;;15.93;46.53;98978.66;5112169;28;891;-43
2023/11/04 15:45:53;;;;;;;;;;;;;;;15.81;45.54;98954.16;5112985;28;1077;-43
2023/11/04 15:48:19;;;;;;;;;;;;;;;15.70;45.30;98899.56;5113085;28;1257;-42
2023/11/04 15:50:44;;;;;;;;;;;;;;;15.82;44.81;98849.78;5112590;27;2417;-41
2023/11/04 15:53:10;;;;;;;;;;;;;;;15.78;45.53;98806.84;5112471;28;1153;-41
2023/11/04 15:55:36;;;;;;;;;;;;;;;16.69;47.17;98742.78;5112397;27;888;-41
2023/11/04 15:58:02;;;;;;;;;;;;;;;16.15;47.06;98829.66;5112654;28;1042;-48
2023/11/04 16:00:27;;;;;;;;;;;;;;;16.05;46.61;98905.84;5112565;27;1089;-41
2023/11/04 16:02:53;;;;;;;;;;;;;;;15.83;45.82;98899.19;5112516;28;1053;-43
2023/11/04 16:05:18;;;;;;;;;;;;;;;17.28;47.93;98878.41;5112353;28;1038;-45
2023/11/04 16:07:44;;;;;;;;;;;;;;;16.42;48.21;98962.31;5112736;27;990;-42
2023/11/04 16:10:10;;;;;;;;;;;;;;;16.18;46.98;98953.22;5112475;28;1976;-45
2023/11/04 16:12:35;;;;;;;;;;;;;;;16.10;46.13;98993.75;5112545;28;1161;-44
2023/11/04 16:15:01;;;;;;;;;;;;;;;16.87;47.97;99021.50;5112385;28;1018;-42
2023/11/04 16:17:27;;;;;;;;;;;;;;;16.50;47.81;99034.03;5112259;28;826;-42
2023/11/04 16:19:52;;;;;;;;;;;;;;;16.13;47.07;99064.25;5111741;28;2410;-41
2023/11/04 16:22:17;;;;;;;;;;;;;;;16.20;46.03;99101.63;5104233;28;1122;-44
2023/11/04 16:24:43;;;;;;;;;;;;;;;15.93;45.67;99084.72;5098960;28;1062;-39
2023/11/04 16:27:09;;;;;;;;;;;;;;;17.15;47.57;99102.88;5098716;28;1065;-42
2023/11/04 16:29:34;;;;;;;;;;;;;;;16.38;47.35;99033.44;5098337;28;1980;-42
2023/11/04 16:32:00;;;;;;;;;;;;;;;16.23;46.48;99051.72;5098465;28;899;-39
2023/11/04 16:34:26;;;;;;;;;;;;;;;15.98;45.93;98987.81;5095714;28;1237;-40
2023/11/04 16:36:51;;;;;;;;;;;;;;;15.86;45.96;99010.25;5093943;28;1178;-39
2023/11/04 16:39:17;;;;;;;;;;;;;;;16.30;46.53;99091.75;5097561;28;1088;-41
2023/11/04 16:41:42;;;;;;;;;;;;;;;16.61;47.26;99155.09;5090983;28;1267;-44
2023/11/04 16:44:08;;;;;;;;;;;;;;;16.18;47.01;99191.97;5093118;28;1106;-40
2023/11/04 16:46:35;;;;;;;;;;;;;;;16.09;46.39;99115.91;5094882;28;1113;-45
2023/11/04 16:49:00;;;;;;;;;;;;;;;16.00;45.79;99114.97;5098550;28;1022;-45
2023/11/04 16:51:26;;;;;;;;;;;;;;;15.99;44.97;99028.47;5097916;28;2566;-44
2023/11/04 16:53:52;;;;;;;;;;;;;;;16.72;46.86;99001.81;5098356;28;1079;-44
2023/11/04 16:56:18;;;;;;;;;;;;;;;16.18;46.70;99048.72;5098031;28;950;-44
2023/11/04 16:58:45;;;;;;;;;;;;;;;16.03;46.16;99102.25;5098247;28;986;-43
2023/11/04 17:01:47;;;;;;;;;;;;;;;15.93;45.43;99042.28;5098243;28;1030;-40
2023/11/04 17:04:13;;;;;;;;;;;;;;;17.04;46.83;99121.72;5098017;28;1002;-44
2023/11/04 17:06:38;;;;;;;;;;;;;;;17.97;48.28;99186.72;5097473;28;986;-42
2023/11/04 17:09:06;;;;;;;;;;;;;;;17.16;52.49;99088.63;5098118;28;1432;-45
2023/11/04 17:11:32;;;;;;;;;;;;;;;15.89;55.40;99098.28;5094581;28;1976;-43
2023/11/04 17:13:57;;;;;;;;;;;;;;;16.20;51.04;99099.78;5092625;28;1269;-44
2023/11/04 17:16:23;;;;;;;;;;;;;;;16.33;49.14;99170.25;5095517;28;1194;-41
2023/11/04 17:18:48;;;;;;;;;;;;;;;16.20;47.84;99136.09;5097451;28;987;-44
2023/11/04 17:21:14;;;;;;;;;;;;;;;16.08;47.21;99128.34;5095290;28;2615;-42
2023/11/04 17:23:39;;;;;;;;;;;;;;;16.00;46.23;99102.56;5093450;28;1205;-42
2023/11/04 17:26:05;;;;;;;;;;;;;;;15.90;46.34;99046.06;5089680;28;1074;-43
2023/11/04 17:28:30;;;;;;;;;;;;;;;15.82;46.09;99017.66;5097527;28;1145;-40
2023/11/04 17:30:57;;;;;;;;;;;;;;;15.87;45.23;98945.59;5096876;28;1977;-41
2023/11/04 17:33:22;;;;;;;;;;;;;;;15.81;45.40;98919.69;5096801;28;1058;-39
2023/11/04 17:35:48;;;;;;;;;;;;;;;17.01;49.34;98884.63;5097496;28;1123;-43
2023/11/04 17:38:15;;;;;;;;;;;;;;;16.49;48.54;98891.72;5088580;28;1220;-44
2023/11/04 17:40:40;;;;;;;;;;;;;;;16.12;47.52;98880.38;5097466;28;1025;-43
2023/11/04 17:43:07;;;;;;;;;;;;;;;16.02;46.46;98927.38;5096983;28;1137;-43
2023/11/04 17:45:33;;;;;;;;;;;;;;;15.97;45.83;99039.19;5097764;28;1066;-43
2023/11/04 17:47:58;;;;;;;;;;;;;;;16.55;47.39;99107.91;5097370;28;1014;-42
2023/11/04 17:50:24;;;;;;;;;;;;;;;16.13;47.11;99086.28;5096787;28;2309;-47
2023/11/04 17:52:50;;;;;;;;;;;;;;;15.96;46.24;99060.56;5096968;28;1062;-42
2023/11/04 17:55:15;;;;;;;;;;;;;;;15.96;45.33;99110.94;5096359;28;1093;-41
2023/11/04 17:57:41;;;;;;;;;;;;;;;15.76;45.23;99125.16;5096668;28;1070;-42
2023/11/04 18:00:09;;;;;;;;;;;;;;;15.75;44.54;99078.38;5097369;28;1015;-42
2023/11/04 18:02:40;;;;;;;;;;;;;;;15.80;45.41;99104.47;5097225;28;1121;-43
2023/11/04 18:05:07;;;;;;;;;;;;;;;16.99;47.06;99087.66;5096739;28;1069;-48
2023/11/04 18:07:32;;;;;;;;;;;;;;;16.21;47.46;99100.63;5095141;28;1120;-44
2023/11/04 18:09:58;;;;;;;;;;;;;;;16.00;46.65;99109.69;5097032;28;1910;-44
2023/11/04 18:12:24;;;;;;;;;;;;;;;15.99;45.79;99095.59;5094212;28;1177;-43
2023/11/04 18:14:50;;;;;;;;;;;;;;;15.89;44.96;99086.84;5096883;28;1126;-47
2023/11/04 18:17:16;;;;;;;;;;;;;;;15.74;44.86;99083.84;5086085;28;1230;-45
2023/11/04 18:19:43;;;;;;;;;;;;;;;16.61;46.86;99120.59;5084855;28;1814;-41
2023/11/04 18:22:09;;;;;;;;;;;;;;;16.62;47.63;99118.75;5088548;28;1142;-44
2023/11/04 18:24:35;;;;;;;;;;;;;;;16.26;46.90;99130.19;5089156;28;917;-41
2023/11/04 18:27:06;;;;;;;;;;;;;;;16.02;46.05;99128.94;5096461;28;1171;-45
2023/11/04 18:29:34;;;;;;;;;;;;;;;15.89;45.72;99148.66;5096686;28;1130;-43
2023/11/04 18:32:00;;;;;;;;;;;;;;;15.81;45.29;99150.38;5095149;28;1054;-41
2023/11/04 18:34:26;;;;;;;;;;;;;;;16.85;47.06;99163.44;5096142;28;1098;-43
2023/11/04 18:36:51;;;;;;;;;;;;;;;16.25;47.08;99185.06;5096090;28;1077;-42
2023/11/04 18:39:17;;;;;;;;;;;;;;;16.08;46.29;99167.31;5096174;28;1010;-47
2023/11/04 18:41:43;;;;;;;;;;;;;;;16.33;46.96;99191.47;5096423;28;1150;-43
2023/11/04 18:44:08;;;;;;;;;;;;;;;16.70;47.84;99200.31;5095932;28;1038;-43
2023/11/04 18:46:37;;;;;;;;;;;;;;;16.25;47.26;99197.50;5096088;28;1097;-42
2023/11/04 18:49:03;;;;;;;;;;;;;;;16.14;47.22;99210.00;5096084;28;1030;-39
2023/11/04 18:51:28;;;;;;;;;;;;;;;15.99;46.17;99220.25;5109257;28;2312;-49
2023/11/04 18:53:55;;;;;;;;;;;;;;;15.96;45.66;99228.47;5096267;28;1042;-47
2023/11/04 18:56:20;;;;;;;;;;;;;;;17.08;47.54;99218.72;5095597;28;1160;-48
2023/11/04 18:58:46;;;;;;;;;;;;;;;16.61;48.05;99223.28;5096209;28;1142;-48
2023/11/04 19:01:12;;;;;;;;;;;;;;;16.26;47.13;99237.19;5095804;28;1136;-51
2023/11/04 19:03:37;;;;;;;;;;;;;;;16.10;46.48;99240.44;5095801;28;1054;-48
2023/11/04 19:06:03;;;;;;;;;;;;;;;16.10;45.66;99219.22;5095530;28;1086;-48
2023/11/04 19:08:33;;;;;;;;;;;;;;;17.11;48.14;99221.09;5095409;28;857;-51
2023/11/04 19:10:58;;;;;;;;;;;;;;;16.48;48.04;99227.13;5095364;28;1981;-50
2023/11/04 19:13:25;;;;;;;;;;;;;;;16.28;46.69;99221.09;5095715;28;1081;-51
2023/11/04 19:15:50;;;;;;;;;;;;;;;16.11;46.07;99222.72;5095844;28;1049;-53
2023/11/04 19:18:17;;;;;;;;;;;;;;;16.01;45.48;99207.69;5095618;28;1078;-50
2023/11/04 19:20:42;;;;;;;;;;;;;;;16.05;44.68;99207.41;5095725;28;1839;-52
2023/11/04 19:23:08;;;;;;;;;;;;;;;15.96;44.45;99243.56;5095822;28;1034;-51
2023/11/04 19:25:34;;;;;;;;;;;;;;;15.78;44.18;99257.56;5096115;28;1054;-51
2023/11/04 19:27:59;;;;;;;;;;;;;;;16.49;46.00;99255.34;5095604;28;1205;-50
2023/11/04 19:30:28;;;;;;;;;;;;;;;16.56;46.94;99266.22;5095380;28;1909;-46
2023/11/04 19:32:54;;;;;;;;;;;;;;;16.16;46.46;99260.25;5095418;28;906;-50
2023/11/04 19:35:20;;;;;;;;;;;;;;;16.02;45.85;99269.50;5095534;28;1062;-47
2023/11/04 19:37:45;;;;;;;;;;;;;;;15.94;45.40;99278.16;5095693;28;1003;-49
2023/11/04 19:40:11;;;;;;;;;;;;;;;16.63;47.11;99272.56;5095806;28;1038;-45
2023/11/04 19:42:37;;;;;;;;;;;;;;;16.54;47.42;99278.78;5095609;28;1142;-51
2023/11/04 19:45:02;;;;;;;;;;;;;;;16.14;46.62;99272.81;5094770;28;1050;-48
2023/11/04 19:47:28;;;;;;;;;;;;;;;15.95;46.05;99269.22;5094539;28;1252;-46
2023/11/04 19:49:54;;;;;;;;;;;;;;;16.62;46.94;99264.75;5095525;28;2403;-50
2023/11/04 19:52:21;;;;;;;;;;;;;;;16.61;47.38;99279.03;5094975;28;1083;-51
2023/11/04 19:54:47;;;;;;;;;;;;;;;16.24;46.74;99296.66;5095253;28;1426;-46
2023/11/04 19:57:12;;;;;;;;;;;;;;;16.10;46.06;99292.69;5095958;28;1114;-50
2023/11/04 19:59:39;;;;;;;;;;;;;;;15.82;45.56;99298.72;5098629;28;1142;-49
2023/11/04 20:02:05;;;;;;;;;;;;;;;15.86;44.75;99318.69;5099285;28;1085;-53
2023/11/04 20:04:30;;;;;;;;;;;;;;;16.10;45.72;99327.97;5098723;28;1033;-50
2023/11/04 20:06:56;;;;;;;;;;;;;;;16.58;47.11;99319.16;5098952;28;1101;-49
2023/11/04 20:09:26;;;;;;;;;;;;;;;16.03;47.05;99326.91;5099055;28;1229;-47
2023/11/04 20:11:52;;;;;;;;;;;;;;;15.99;45.70;99328.16;5099167;28;1909;-51
2023/11/04 20:14:18;;;;;;;;;;;;;;;15.82;45.19;99319.94;5098803;28;1073;-52
2023/11/04 20:16:46;;;;;;;;;;;;;;;17.17;47.38;99310.84;5099062;28;1090;-50
2023/11/04 20:19:14;;;;;;;;;;;;;;;16.48;47.82;99319.19;5098483;28;2352;-51
2023/11/04 20:21:46;;;;;;;;;;;;;;;16.16;46.83;99339.84;5098887;28;863;-49
2023/11/04 20:24:15;;;;;;;;;;;;;;;15.98;46.02;99332.63;5098832;28;1018;-49
2023/11/04 20:26:41;;;;;;;;;;;;;;;15.96;44.99;99344.34;5098541;28;1193;-51
2023/11/04 20:29:06;;;;;;;;;;;;;;;16.08;46.04;99361.78;5097784;28;1101;-48
2023/11/04 20:31:32;;;;;;;;;;;;;;;16.82;46.76;99358.44;5098468;28;1902;-48
2023/11/04 20:33:57;;;;;;;;;;;;;;;16.34;46.61;99365.63;5098299;28;1169;-49
2023/11/04 20:36:23;;;;;;;;;;;;;;;16.07;46.05;99368.06;5098782;28;1149;-55
2023/11/04 20:38:48;;;;;;;;;;;;;;;15.83;45.42;99379.13;5098567;28;1050;-54
2023/11/04 20:41:14;;;;;;;;;;;;;;;17.20;47.59;99370.84;5098241;28;1166;-53
2023/11/04 20:43:40;;;;;;;;;;;;;;;16.37;47.24;99370.63;5097655;28;1007;-53
2023/11/04 20:46:05;;;;;;;;;;;;;;;16.16;46.31;99371.69;5097822;28;849;-54
2023/11/04 20:48:31;;;;;;;;;;;;;;;16.02;45.93;99394.19;5098333;28;1129;-54
2023/11/04 20:50:56;;;;;;;;;;;;;;;15.84;45.15;99394.88;5098383;28;2097;-52
2023/11/04 20:53:22;;;;;;;;;;;;;;;15.96;44.93;99407.97;5098444;28;1236;-47
2023/11/04 20:55:48;;;;;;;;;;;;;;;16.74;47.00;99417.59;5098156;28;1137;-52
2023/11/04 20:58:13;;;;;;;;;;;;;;;16.17;46.47;99421.09;5097658;28;1117;-47
2023/11/04 21:00:40;;;;;;;;;;;;;;;16.02;45.93;99415.41;5098065;28;1054;-50
2023/11/04 21:03:06;;;;;;;;;;;;;;;16.83;47.47;99407.91;5098163;28;1114;-46
2023/11/04 21:05:31;;;;;;;;;;;;;;;16.65;47.09;99419.31;5097810;28;1026;-52
2023/11/04 21:07:57;;;;;;;;;;;;;;;16.15;46.78;99409.78;5097592;28;1042;-48
2023/11/04 21:10:23;;;;;;;;;;;;;;;16.10;45.59;99406.75;5097272;28;1976;-51
2023/11/04 21:12:49;;;;;;;;;;;;;;;17.49;47.23;99412.31;5097702;28;1142;-49
2023/11/04 21:15:15;;;;;;;;;;;;;;;16.58;47.40;99433.31;5098031;28;1010;-49
2023/11/04 21:17:43;;;;;;;;;;;;;;;16.33;46.38;99451.53;5097470;28;987;-46
2023/11/04 21:20:09;;;;;;;;;;;;;;;16.14;45.79;99450.56;5097478;28;1891;-53
2023/11/04 21:22:38;;;;;;;;;;;;;;;16.62;46.88;99456.78;5097468;28;895;-52
2023/11/04 21:25:03;;;;;;;;;;;;;;;16.50;46.83;99460.56;5097739;28;1093;-49
2023/11/04 21:27:29;;;;;;;;;;;;;;;16.20;46.36;99446.53;5097608;28;1046;-49
2023/11/04 21:29:54;;;;;;;;;;;;;;;16.02;45.68;99432.16;5097517;28;1997;-50
2023/11/04 21:32:20;;;;;;;;;;;;;;;15.93;45.16;99440.94;5096904;28;1038;-52
2023/11/04 21:34:45;;;;;;;;;;;;;;;16.62;46.75;99445.31;5097121;28;1395;-51
2023/11/04 21:37:11;;;;;;;;;;;;;;;16.99;47.10;99451.59;5097517;28;1214;-49
2023/11/04 21:39:37;;;;;;;;;;;;;;;16.28;47.12;99444.81;5097506;28;1050;-52
2023/11/04 21:42:03;;;;;;;;;;;;;;;16.24;45.84;99447.91;5097119;28;1065;-48
2023/11/04 21:44:30;;;;;;;;;;;;;;;16.11;45.40;99453.50;5097262;28;1074;-48
2023/11/04 21:46:56;;;;;;;;;;;;;;;15.86;44.88;99453.94;5096626;28;925;-54
2023/11/04 21:49:21;;;;;;;;;;;;;;;15.93;44.53;99445.41;5097678;28;1831;-48
2023/11/04 21:51:47;;;;;;;;;;;;;;;15.80;44.08;99459.75;5096623;28;1980;-48
2023/11/04 21:54:12;;;;;;;;;;;;;;;15.88;44.49;99461.75;5096884;28;1062;-51
2023/11/04 21:56:38;;;;;;;;;;;;;;;16.46;46.03;99470.66;5096930;28;1109;-54
2023/11/04 21:59:03;;;;;;;;;;;;;;;16.12;45.70;99463.13;5096996;28;1002;-53
2023/11/04 22:01:29;;;;;;;;;;;;;;;16.57;46.63;99468.78;5096794;28;1174;-54
2023/11/04 22:03:54;;;;;;;;;;;;;;;16.67;46.81;99477.56;5096754;28;1319;-55
2023/11/04 22:06:20;;;;;;;;;;;;;;;16.12;46.83;99485.22;5096586;28;1130;-54
2023/11/04 22:08:45;;;;;;;;;;;;;;;16.14;45.30;99485.06;5096808;28;1249;-51
2023/11/04 22:11:11;;;;;;;;;;;;;;;15.41;45.19;99389.03;5096389;28;1969;-49
2023/11/04 22:13:36;;;;;;;;;;;;;;;16.71;46.92;99484.28;5096917;28;1093;-51
2023/11/04 22:16:02;;;;;;;;;;;;;;;16.37;46.86;99485.59;5096452;28;1062;-50
2023/11/04 22:18:28;;;;;;;;;;;;;;;16.19;46.00;99489.94;5096991;28;1050;-50
2023/11/04 22:20:53;;;;;;;;;;;;;;;15.93;45.42;99493.16;5095362;28;2217;-53
2023/11/04 22:23:18;;;;;;;;;;;;;;;15.87;45.24;99505.97;5096361;28;1084;-47
2023/11/04 22:25:44;;;;;;;;;;;;;;;16.97;46.53;99509.34;5097075;28;1102;-50
2023/11/04 22:28:10;;;;;;;;;;;;;;;16.26;46.47;99502.53;5096455;28;1150;-50
2023/11/04 22:30:35;;;;;;;;;;;;;;;15.96;45.87;99519.38;5096176;28;1893;-51
2023/11/04 22:33:01;;;;;;;;;;;;;;;15.96;45.14;99527.34;5095999;28;1101;-48
2023/11/04 22:35:26;;;;;;;;;;;;;;;16.50;46.51;99526.94;5096409;28;1070;-51
2023/11/04 22:37:52;;;;;;;;;;;;;;;16.79;47.15;99535.81;5096695;28;1050;-54
2023/11/04 22:40:17;;;;;;;;;;;;;;;16.28;46.51;99544.84;5095252;28;1145;-49
2023/11/04 22:42:43;;;;;;;;;;;;;;;16.07;45.81;99534.34;5095959;28;986;-51
2023/11/04 22:45:09;;;;;;;;;;;;;;;15.87;45.40;99543.09;5096310;28;1066;-48
2023/11/04 22:47:35;;;;;;;;;;;;;;;15.87;44.77;99544.91;5096145;28;1140;-53
2023/11/04 22:50:00;;;;;;;;;;;;;;;16.75;46.60;99561.81;5096405;28;2617;-49
2023/11/04 22:52:26;;;;;;;;;;;;;;;16.28;46.48;99560.78;5096598;28;1134;-52
2023/11/04 22:54:51;;;;;;;;;;;;;;;15.99;45.79;99562.41;5096233;28;995;-50
2023/11/04 22:57:17;;;;;;;;;;;;;;;15.94;45.24;99561.97;5095964;28;1138;-51
2023/11/04 22:59:42;;;;;;;;;;;;;;;17.30;46.43;99567.44;5096155;28;1140;-48
2023/11/04 23:02:08;;;;;;;;;;;;;;;16.40;46.71;99572.06;5095839;28;919;-52
2023/11/04 23:04:33;;;;;;;;;;;;;;;16.23;46.05;99576.28;5096056;28;1314;-51
2023/11/04 23:06:59;;;;;;;;;;;;;;;15.93;45.68;99591.28;5096037;28;1102;-49
2023/11/04 23:09:25;;;;;;;;;;;;;;;16.93;46.95;99598.28;5095735;28;1121;-48
2023/11/04 23:11:50;;;;;;;;;;;;;;;16.35;46.79;99604.34;5086605;28;1910;-52
2023/11/04 23:14:16;;;;;;;;;;;;;;;16.13;45.90;99614.22;5088950;28;1134;-49
2023/11/04 23:16:42;;;;;;;;;;;;;;;15.90;45.38;99614.44;5084970;28;1225;-47
2023/11/04 23:19:07;;;;;;;;;;;;;;;15.89;44.31;99614.56;5094890;28;2330;-50
2023/11/04 23:21:33;;;;;;;;;;;;;;;16.86;46.50;99624.59;5081647;28;1097;-52
2023/11/04 23:23:59;;;;;;;;;;;;;;;16.52;47.01;99631.16;5090789;28;1491;-49
2023/11/04 23:26:24;;;;;;;;;;;;;;;16.20;46.16;99633.09;5095805;28;1046;-52
2023/11/04 23:28:50;;;;;;;;;;;;;;;15.97;45.82;99635.09;5079920;28;1062;-47
2023/11/04 23:31:16;;;;;;;;;;;;;;;15.91;44.96;99639.16;5084697;28;1909;-47
2023/11/04 23:33:41;;;;;;;;;;;;;;;17.04;46.69;99643.28;5098230;28;1042;-51
2023/11/04 23:36:07;;;;;;;;;;;;;;;16.27;46.54;99641.34;5099912;28;1090;-50
2023/11/04 23:38:33;;;;;;;;;;;;;;;16.05;45.81;99645.91;5099299;28;1018;-47
2023/11/04 23:40:59;;;;;;;;;;;;;;;15.97;45.29;99646.56;5099638;28;1060;-49
2023/11/04 23:43:25;;;;;;;;;;;;;;;17.15;46.71;99650.28;5097500;28;1057;-52
2023/11/04 23:45:51;;;;;;;;;;;;;;;16.39;46.80;99655.31;5084771;28;1039;-50
2023/11/04 23:48:16;;;;;;;;;;;;;;;16.13;45.93;99661.16;5092443;28;1062;-47
2023/11/04 23:50:42;;;;;;;;;;;;;;;15.97;45.35;99659.81;5088464;28;2744;-48
2023/11/04 23:53:07;;;;;;;;;;;;;;;15.83;44.76;99666.31;5086142;28;1166;-49
2023/11/04 23:55:33;;;;;;;;;;;;;;;15.86;44.09;99667.88;5089929;28;1114;-48
2023/11/04 23:57:58;;;;;;;;;;;;;;;15.99;45.67;99675.63;5094074;28;1209;-49
